createdAt,value
2023-05-11T00:01:25.228Z,49.59
2023-05-11T00:03:52.710Z,49.81
2023-05-11T00:06:20.449Z,50.27
2023-05-11T00:08:47.668Z,50.37
2023-05-11T00:11:15.385Z,51.22
2023-05-11T00:13:42.712Z,51.44
2023-05-11T00:16:10.286Z,51.42
2023-05-11T00:18:37.690Z,51.24
2023-05-11T00:21:05.394Z,51.17
2023-05-11T00:23:32.681Z,51.24
2023-05-11T00:26:00.429Z,51.35
2023-05-11T00:28:27.689Z,52.18
2023-05-11T00:30:58.632Z,52.15
2023-05-11T00:33:26.283Z,52.74
2023-05-11T00:36:01.604Z,52.53
2023-05-11T00:38:28.918Z,53.06
2023-05-11T00:40:56.948Z,53.20
2023-05-11T00:43:24.264Z,53.34
2023-05-11T00:45:53.599Z,53.21
2023-05-11T00:48:21.709Z,53.12
2023-05-11T00:50:51.076Z,53.25
2023-05-11T00:53:18.426Z,54.02
2023-05-11T00:55:46.703Z,54.04
2023-05-11T00:58:16.057Z,54.11
2023-05-11T01:00:44.552Z,53.95
2023-05-11T01:03:13.394Z,54.74
2023-05-11T01:06:07.343Z,54.85
2023-05-11T01:09:00.056Z,54.67
2023-05-11T01:11:36.292Z,54.74
2023-05-11T01:14:41.612Z,54.89
2023-05-11T01:17:24.527Z,55.47
2023-05-11T01:20:02.516Z,55.34
2023-05-11T01:22:49.441Z,55.64
2023-05-11T01:25:38.189Z,55.72
2023-05-11T01:28:26.310Z,55.58
2023-05-11T01:31:09.099Z,56.08
2023-05-11T01:33:40.969Z,56.56
2023-05-11T01:36:12.858Z,56.92
2023-05-11T01:38:44.460Z,56.60
2023-05-11T01:41:20.119Z,56.71
2023-05-11T01:44:00.704Z,57.04
2023-05-11T01:46:33.776Z,57.07
2023-05-11T01:49:09.589Z,57.29
2023-05-11T01:51:39.652Z,57.46
2023-05-11T01:54:11.515Z,57.96
2023-05-11T01:56:43.176Z,58.10
2023-05-11T01:59:14.390Z,57.82
2023-05-11T02:01:41.936Z,58.01
2023-05-11T02:04:12.027Z,58.27
2023-05-11T02:06:43.748Z,58.43
2023-05-11T02:09:13.661Z,58.12
2023-05-11T02:11:43.665Z,58.14
2023-05-11T02:14:13.074Z,58.22
2023-05-11T02:16:42.076Z,58.08
2023-05-11T02:19:11.789Z,58.41
2023-05-11T02:21:42.461Z,58.50
2023-05-11T02:24:11.191Z,58.84
2023-05-11T02:26:39.411Z,58.78
2023-05-11T02:29:07.079Z,58.81
2023-05-11T02:31:46.320Z,58.66
2023-05-11T02:34:24.970Z,59.08
2023-05-11T02:36:58.910Z,59.30
2023-05-11T02:39:36.539Z,58.95
2023-05-11T02:42:15.409Z,59.01
2023-05-11T02:45:02.517Z,59.67
2023-05-11T02:47:36.805Z,59.60
2023-05-11T02:50:07.978Z,59.20
2023-05-11T02:52:41.718Z,58.91
2023-05-11T02:55:10.976Z,58.55
2023-05-11T02:57:39.500Z,58.73
2023-05-11T03:00:08.637Z,59.35
2023-05-11T03:02:36.069Z,59.15
2023-05-11T03:05:04.955Z,59.17
2023-05-11T03:07:33.857Z,59.16
2023-05-11T03:10:03.477Z,59.21
2023-05-11T03:12:34.066Z,59.39
2023-05-11T03:15:05.376Z,59.32
2023-05-11T03:17:33.671Z,59.25
2023-05-11T03:20:03.782Z,59.00
2023-05-11T03:22:33.432Z,59.08
2023-05-11T03:25:03.779Z,59.34
2023-05-11T03:27:34.036Z,60.04
2023-05-11T03:30:08.799Z,60.08
2023-05-11T03:32:37.283Z,60.81
2023-05-11T03:35:05.681Z,60.53
2023-05-11T03:37:36.247Z,60.45
2023-05-11T03:40:05.661Z,59.99
2023-05-11T03:42:36.181Z,59.58
2023-05-11T03:45:07.923Z,60.32
2023-05-11T03:47:40.128Z,59.94
2023-05-11T03:50:09.647Z,59.74
2023-05-11T03:52:38.003Z,59.99
2023-05-11T03:55:06.564Z,60.24
2023-05-11T03:57:34.799Z,60.04
2023-05-11T04:00:02.473Z,59.73
2023-05-11T04:02:30.000Z,59.76
2023-05-11T04:04:57.608Z,59.03
2023-05-11T04:07:24.938Z,58.93
2023-05-11T04:09:52.606Z,58.93
2023-05-11T04:12:19.887Z,58.85
2023-05-11T04:14:47.437Z,58.60
2023-05-11T04:17:14.684Z,58.62
2023-05-11T04:19:42.287Z,58.68
2023-05-11T04:22:09.624Z,58.67
2023-05-11T04:24:37.166Z,58.49
2023-05-11T04:27:04.602Z,57.86
2023-05-11T04:29:32.363Z,57.61
2023-05-11T04:31:59.787Z,57.31
2023-05-11T04:34:27.415Z,57.27
2023-05-11T04:36:54.669Z,57.29
2023-05-11T04:39:22.495Z,56.98
2023-05-11T04:41:49.788Z,56.34
2023-05-11T04:44:18.182Z,56.26
2023-05-11T04:46:45.425Z,55.73
2023-05-11T04:49:12.978Z,55.87
2023-05-11T04:51:40.250Z,55.07
2023-05-11T04:54:07.818Z,54.74
2023-05-11T04:56:40.431Z,54.72
2023-05-11T04:59:08.425Z,54.75
2023-05-11T05:01:36.152Z,54.64
2023-05-11T05:04:04.033Z,54.40
2023-05-11T05:06:32.338Z,54.56
2023-05-11T05:08:59.909Z,54.35
2023-05-11T05:11:27.312Z,54.28
2023-05-11T05:13:55.305Z,55.15
2023-05-11T05:16:22.708Z,55.06
2023-05-11T05:18:50.450Z,54.54
2023-05-11T05:21:17.737Z,54.88
2023-05-11T05:23:45.379Z,54.73
2023-05-11T05:26:12.621Z,54.82
2023-05-11T05:28:40.242Z,54.39
2023-05-11T05:31:07.615Z,55.55
2023-05-11T05:33:35.255Z,55.17
2023-05-11T05:36:02.860Z,54.54
2023-05-11T05:38:30.392Z,54.43
2023-05-11T05:40:57.910Z,54.48
2023-05-11T05:43:25.598Z,54.96
2023-05-11T05:45:52.979Z,54.72
2023-05-11T05:48:20.953Z,54.63
2023-05-11T05:50:48.340Z,54.45
2023-05-11T05:53:16.054Z,54.45
2023-05-11T05:55:43.371Z,54.76
2023-05-11T05:58:10.954Z,54.73
2023-05-11T06:00:38.313Z,54.48
2023-05-11T06:03:05.975Z,54.13
2023-05-11T06:05:33.323Z,53.61
2023-05-11T06:08:09.689Z,53.65
2023-05-11T06:10:39.072Z,53.38
2023-05-11T06:13:08.736Z,53.63
2023-05-11T06:15:36.143Z,53.75
2023-05-11T06:18:03.915Z,53.35
2023-05-11T06:20:32.458Z,53.24
2023-05-11T06:23:00.136Z,52.56
2023-05-11T06:25:27.972Z,52.27
2023-05-11T06:27:55.917Z,51.72
2023-05-11T06:30:23.368Z,51.82
2023-05-11T06:32:51.001Z,51.59
2023-05-11T06:35:18.364Z,52.07
2023-05-11T06:37:45.977Z,51.55
2023-05-11T06:40:16.360Z,50.56
2023-05-11T06:42:47.046Z,50.43
2023-05-11T06:45:14.401Z,50.11
2023-05-11T06:47:42.432Z,49.35
2023-05-11T06:50:10.232Z,47.85
2023-05-11T06:52:37.917Z,48.29
2023-05-11T06:55:05.881Z,47.17
2023-05-11T06:57:33.532Z,45.91
2023-05-11T07:00:00.840Z,45.02
2023-05-11T07:02:28.600Z,45.19
2023-05-11T07:04:56.117Z,44.83
2023-05-11T07:07:24.127Z,45.37
2023-05-11T07:09:51.472Z,45.42
2023-05-11T07:12:19.084Z,45.89
2023-05-11T07:14:46.398Z,45.27
2023-05-11T07:17:14.079Z,45.18
2023-05-11T07:19:41.513Z,43.97
2023-05-11T07:22:09.098Z,42.75
2023-05-11T07:24:37.749Z,43.36
2023-05-11T07:27:05.479Z,43.22
2023-05-11T07:29:32.800Z,43.48
2023-05-11T07:32:00.735Z,43.44
2023-05-11T07:34:27.990Z,43.87
2023-05-11T07:36:55.750Z,44.55
2023-05-11T07:39:23.094Z,43.62
2023-05-11T07:41:50.683Z,43.29
2023-05-11T07:44:18.335Z,43.60
2023-05-11T07:46:46.021Z,42.56
2023-05-11T07:49:18.833Z,42.57
2023-05-11T07:51:52.220Z,42.87
2023-05-11T07:54:21.660Z,42.85
2023-05-11T07:56:50.513Z,41.97
2023-05-11T07:59:17.855Z,41.71
2023-05-11T08:01:45.954Z,42.39
2023-05-11T08:04:13.231Z,41.95
2023-05-11T08:06:40.924Z,42.55
2023-05-11T08:09:08.253Z,41.82
2023-05-11T08:11:35.970Z,41.52
2023-05-11T08:14:03.995Z,41.88
2023-05-11T08:16:31.770Z,41.50
2023-05-11T08:18:59.219Z,40.85
2023-05-11T08:21:26.948Z,41.30
2023-05-11T08:23:54.222Z,40.25
2023-05-11T08:26:21.880Z,40.10
2023-05-11T08:28:49.147Z,40.66
2023-05-11T08:31:18.637Z,39.40
2023-05-11T08:33:46.146Z,39.84
2023-05-11T08:36:13.885Z,39.19
2023-05-11T08:38:41.443Z,39.03
2023-05-11T08:41:12.799Z,38.96
2023-05-11T08:43:40.849Z,38.72
2023-05-11T08:46:11.314Z,38.28
2023-05-11T08:48:38.835Z,36.88
2023-05-11T08:51:07.986Z,36.41
2023-05-11T08:53:35.416Z,35.19
2023-05-11T08:56:07.385Z,34.77
2023-05-11T08:58:39.531Z,35.36
2023-05-11T09:01:08.829Z,34.97
2023-05-11T09:03:37.469Z,34.11
2023-05-11T09:06:07.533Z,34.50
2023-05-11T09:08:37.749Z,33.82
2023-05-11T09:11:06.400Z,34.47
2023-05-11T09:13:34.379Z,34.46
2023-05-11T09:16:02.864Z,34.94
2023-05-11T09:18:30.357Z,34.72
2023-05-11T09:21:01.666Z,34.22
2023-05-11T09:23:29.048Z,34.22
2023-05-11T09:25:56.765Z,34.07
2023-05-11T09:28:27.907Z,32.46
2023-05-11T09:31:03.174Z,20.83
2023-05-11T09:33:30.760Z,16.38
2023-05-11T09:35:59.785Z,13.60
2023-05-11T09:38:27.149Z,11.01
2023-05-11T09:41:01.153Z,10.34
2023-05-11T09:43:33.608Z,10.18
2023-05-11T09:46:05.089Z,9.83
2023-05-11T09:48:34.084Z,9.73
2023-05-11T09:51:05.518Z,12.50
2023-05-11T09:53:43.352Z,16.43
2023-05-11T09:56:15.778Z,16.06
2023-05-11T09:58:57.416Z,16.62
2023-05-11T10:01:33.814Z,18.73
2023-05-11T10:04:17.978Z,19.12
2023-05-11T10:06:55.062Z,16.47
2023-05-11T10:09:27.289Z,12.14
2023-05-11T10:11:56.749Z,10.58
2023-05-11T10:14:27.733Z,9.79
2023-05-11T10:16:58.473Z,9.14
2023-05-11T10:19:31.730Z,8.66
2023-05-11T10:22:00.855Z,8.14
2023-05-11T10:24:29.215Z,8.14
2023-05-11T10:26:58.964Z,7.41
2023-05-11T10:29:26.935Z,7.21
2023-05-11T10:31:57.844Z,6.69
2023-05-11T10:34:27.350Z,6.66
2023-05-11T10:36:58.325Z,6.15
2023-05-11T10:39:28.671Z,6.20
2023-05-11T10:42:53.600Z,6.33
2023-05-11T10:45:32.027Z,8.26
2023-05-11T10:48:14.338Z,9.87
2023-05-11T10:51:30.844Z,11.28
2023-05-11T10:54:18.791Z,12.86
2023-05-11T10:57:08.562Z,14.56
2023-05-11T11:00:17.110Z,15.75
2023-05-11T11:02:45.526Z,16.27
2023-05-11T11:05:17.912Z,17.54
2023-05-11T11:08:04.168Z,18.04
2023-05-11T11:10:43.914Z,18.95
2023-05-11T11:13:14.089Z,18.40
2023-05-11T11:15:54.393Z,18.89
2023-05-11T11:18:24.068Z,19.86
2023-05-11T11:20:54.612Z,20.62
2023-05-11T11:23:43.166Z,20.25
2023-05-11T11:26:16.406Z,21.35
2023-05-11T11:29:10.664Z,21.92
2023-05-11T11:31:39.998Z,21.44
2023-05-11T11:34:27.984Z,21.93
2023-05-11T11:36:55.598Z,21.38
2023-05-11T11:39:26.017Z,22.07
2023-05-11T11:42:05.211Z,22.62
2023-05-11T11:44:34.911Z,21.61
2023-05-11T11:47:18.092Z,21.54
2023-05-11T11:49:48.861Z,21.03
2023-05-11T11:52:28.676Z,19.15
2023-05-11T11:55:01.216Z,20.93
2023-05-11T11:57:34.387Z,21.00
2023-05-11T12:00:07.491Z,21.50
2023-05-11T12:02:35.868Z,22.06
2023-05-11T12:05:18.572Z,22.15
2023-05-11T12:07:51.611Z,23.23
2023-05-11T12:10:23.979Z,22.65
2023-05-11T12:12:59.306Z,22.61
2023-05-11T12:15:29.737Z,22.34
2023-05-11T12:17:57.967Z,22.14
2023-05-11T12:20:26.077Z,22.80
2023-05-11T12:22:53.868Z,22.97
2023-05-11T12:25:22.075Z,21.63
2023-05-11T12:28:03.393Z,22.88
2023-05-11T12:30:34.844Z,23.47
2023-05-11T12:33:05.981Z,23.49
2023-05-11T12:35:34.862Z,23.91
2023-05-11T12:38:03.188Z,24.16
2023-05-11T12:40:31.719Z,23.66
2023-05-11T12:43:01.028Z,24.28
2023-05-11T12:45:29.495Z,24.62
2023-05-11T12:47:58.689Z,24.44
2023-05-11T12:50:26.138Z,24.44
2023-05-11T12:52:53.816Z,24.82
2023-05-11T12:55:29.198Z,24.51
2023-05-11T12:58:18.758Z,24.96
2023-05-11T13:00:57.832Z,24.51
2023-05-11T13:03:34.030Z,23.95
2023-05-11T13:06:13.645Z,24.72
2023-05-11T13:08:47.045Z,24.91
2023-05-11T13:11:26.993Z,25.60
2023-05-11T13:13:57.221Z,25.86
2023-05-11T13:16:29.050Z,25.78
2023-05-11T13:19:01.674Z,26.90
2023-05-11T13:21:30.004Z,26.06
2023-05-11T13:23:57.699Z,26.76
2023-05-11T13:26:30.868Z,26.79
2023-05-11T13:29:10.118Z,26.83
2023-05-11T13:31:53.521Z,26.82
2023-05-11T13:34:21.662Z,26.58
2023-05-11T13:36:49.505Z,27.03
2023-05-11T13:39:17.393Z,26.94
2023-05-11T13:41:45.126Z,26.01
2023-05-11T13:44:12.929Z,26.28
2023-05-11T13:46:40.400Z,26.21
2023-05-11T13:49:08.760Z,25.58
2023-05-11T13:51:36.418Z,25.50
2023-05-11T13:54:04.327Z,25.37
2023-05-11T13:56:31.967Z,25.62
2023-05-11T13:59:00.205Z,25.75
2023-05-11T14:01:27.969Z,25.67
2023-05-11T14:03:57.332Z,26.39
2023-05-11T14:06:26.191Z,25.69
2023-05-11T14:08:54.150Z,25.68
2023-05-11T14:11:21.831Z,26.67
2023-05-11T14:13:51.226Z,26.30
2023-05-11T14:16:19.866Z,25.40
2023-05-11T14:18:48.462Z,26.40
2023-05-11T14:21:17.361Z,25.35
2023-05-11T14:23:57.674Z,25.34
2023-05-11T14:26:29.805Z,25.54
2023-05-11T14:28:58.115Z,25.82
2023-05-11T14:31:26.247Z,25.89
2023-05-11T14:33:53.986Z,25.54
2023-05-11T14:36:23.399Z,24.68
2023-05-11T14:38:51.312Z,25.24
2023-05-11T14:41:19.174Z,25.82
2023-05-11T14:43:46.952Z,25.63
2023-05-11T14:46:14.451Z,25.75
2023-05-11T14:48:43.461Z,26.25
2023-05-11T14:51:10.780Z,26.41
2023-05-11T14:53:38.458Z,26.44
2023-05-11T14:56:06.224Z,26.77
2023-05-11T14:58:33.821Z,26.45
2023-05-11T15:01:01.104Z,26.82
2023-05-11T15:03:29.596Z,26.96
2023-05-11T15:05:56.959Z,26.85
2023-05-11T15:08:30.308Z,26.68
2023-05-11T15:10:58.665Z,26.26
2023-05-11T15:13:26.870Z,26.45
2023-05-11T15:15:54.388Z,26.24
2023-05-11T15:18:21.732Z,26.53
2023-05-11T15:20:49.404Z,26.82
2023-05-11T15:23:17.321Z,27.11
2023-05-11T15:25:45.427Z,27.13
2023-05-11T15:28:13.345Z,27.70
2023-05-11T15:30:42.275Z,27.09
2023-05-11T15:33:10.934Z,26.99
2023-05-11T15:35:38.821Z,27.13
2023-05-11T15:38:06.377Z,27.73
2023-05-11T15:40:34.147Z,26.92
2023-05-11T15:43:01.569Z,27.76
2023-05-11T15:45:29.647Z,27.70
2023-05-11T15:47:58.287Z,28.17
2023-05-11T15:50:26.381Z,27.96
2023-05-11T15:52:53.907Z,27.73
2023-05-11T15:55:21.201Z,28.31
2023-05-11T15:57:48.836Z,28.12
2023-05-11T16:00:17.682Z,28.18
2023-05-11T16:02:46.129Z,28.78
2023-05-11T16:05:13.619Z,28.89
2023-05-11T16:07:43.630Z,28.96
2023-05-11T16:10:11.315Z,28.90
2023-05-11T16:12:39.055Z,29.22
2023-05-11T16:15:07.554Z,29.02
2023-05-11T16:17:35.236Z,29.22
2023-05-11T16:20:09.010Z,29.15
2023-05-11T16:22:44.397Z,29.61
2023-05-11T16:25:11.813Z,29.73
2023-05-11T16:27:39.504Z,29.28
2023-05-11T16:30:22.275Z,29.39
2023-05-11T16:32:53.058Z,29.27
2023-05-11T16:35:20.691Z,29.34
2023-05-11T16:37:48.525Z,29.32
2023-05-11T16:40:21.272Z,29.85
2023-05-11T16:42:49.437Z,29.49
2023-05-11T16:45:16.934Z,29.39
2023-05-11T16:47:47.510Z,29.73
2023-05-11T16:50:20.078Z,29.25
2023-05-11T16:52:48.794Z,29.67
2023-05-11T16:55:16.278Z,29.50
2023-05-11T16:57:44.615Z,29.74
2023-05-11T17:00:14.076Z,29.81
2023-05-11T17:02:41.803Z,30.47
2023-05-11T17:05:11.867Z,29.99
2023-05-11T17:07:39.798Z,30.74
2023-05-11T17:10:08.096Z,30.59
2023-05-11T17:12:35.860Z,30.14
2023-05-11T17:15:03.723Z,30.50
2023-05-11T17:17:31.342Z,30.76
2023-05-11T17:19:58.563Z,31.41
2023-05-11T17:22:28.311Z,32.11
2023-05-11T17:24:55.629Z,32.47
2023-05-11T17:27:23.325Z,32.86
2023-05-11T17:29:50.580Z,33.09
2023-05-11T17:32:18.492Z,33.42
2023-05-11T17:34:46.033Z,33.15
2023-05-11T17:37:30.662Z,33.84
2023-05-11T17:40:01.237Z,33.64
2023-05-11T17:42:29.071Z,33.84
2023-05-11T17:44:57.977Z,33.85
2023-05-11T17:47:26.301Z,34.11
2023-05-11T17:49:54.112Z,33.53
2023-05-11T17:52:23.529Z,33.86
2023-05-11T17:54:52.252Z,34.05
2023-05-11T17:57:20.430Z,34.05
2023-05-11T17:59:47.975Z,34.50
2023-05-11T18:02:16.601Z,34.58
2023-05-11T18:04:44.071Z,35.13
2023-05-11T18:07:11.985Z,35.01
2023-05-11T18:09:39.838Z,35.52
2023-05-11T18:12:08.350Z,35.59
2023-05-11T18:14:36.256Z,35.77
2023-05-11T18:17:05.298Z,35.87
2023-05-11T18:19:32.634Z,35.90
2023-05-11T18:22:00.726Z,36.40
2023-05-11T18:24:27.963Z,36.50
2023-05-11T18:26:56.015Z,36.45
2023-05-11T18:29:23.280Z,36.48
2023-05-11T18:31:51.094Z,36.39
2023-05-11T18:34:18.527Z,36.91
2023-05-11T18:36:53.130Z,37.26
2023-05-11T18:39:20.670Z,37.10
2023-05-11T18:41:48.268Z,37.17
2023-05-11T18:44:16.483Z,37.63
2023-05-11T18:46:44.042Z,38.13
2023-05-11T18:49:11.473Z,38.24
2023-05-11T18:51:39.050Z,38.39
2023-05-11T18:54:06.740Z,38.50
2023-05-11T18:56:37.098Z,38.67
2023-05-11T18:59:04.623Z,39.04
2023-05-11T19:01:46.674Z,39.22
2023-05-11T19:04:17.797Z,39.29
2023-05-11T19:06:45.406Z,39.56
2023-05-11T19:09:12.717Z,40.04
2023-05-11T19:11:40.365Z,40.28
2023-05-11T19:14:07.840Z,40.41
2023-05-11T19:16:35.909Z,40.49
2023-05-11T19:19:03.504Z,40.74
2023-05-11T19:21:31.683Z,40.89
2023-05-11T19:23:58.952Z,40.76
2023-05-11T19:26:26.797Z,40.97
2023-05-11T19:28:54.165Z,41.15
2023-05-11T19:31:22.867Z,41.55
2023-05-11T19:33:50.157Z,41.54
2023-05-11T19:36:17.839Z,41.64
2023-05-11T19:38:45.740Z,41.90
2023-05-11T19:41:13.431Z,41.87
2023-05-11T19:43:40.685Z,42.25
2023-05-11T19:46:08.737Z,42.57
2023-05-11T19:48:36.192Z,42.77
2023-05-11T19:51:03.889Z,42.88
2023-05-11T19:53:31.583Z,43.01
2023-05-11T19:55:59.754Z,42.89
2023-05-11T19:58:27.315Z,43.12
2023-05-11T20:00:55.222Z,43.33
2023-05-11T20:03:22.708Z,43.20
2023-05-11T20:05:50.615Z,43.54
2023-05-11T20:08:17.945Z,43.62
2023-05-11T20:10:46.242Z,44.09
2023-05-11T20:13:13.587Z,44.17
2023-05-11T20:15:41.152Z,44.33
2023-05-11T20:18:09.478Z,44.49
2023-05-11T20:20:37.093Z,44.79
2023-05-11T20:23:05.597Z,44.76
2023-05-11T20:25:33.278Z,44.92
2023-05-11T20:28:01.098Z,44.97
2023-05-11T20:30:28.700Z,45.13
2023-05-11T20:35:26.893Z,45.10
2023-05-11T20:37:55.148Z,45.28
2023-05-11T20:40:22.774Z,45.31
2023-05-11T20:42:49.986Z,44.91
2023-05-11T20:45:17.873Z,45.28
2023-05-11T20:47:45.200Z,45.25
2023-05-11T20:50:15.234Z,45.16
2023-05-11T20:52:42.848Z,45.35
2023-05-11T20:55:10.203Z,45.50
2023-05-11T20:57:37.731Z,45.68
2023-05-11T21:00:07.728Z,45.48
2023-05-11T21:02:35.466Z,45.53
2023-05-11T21:05:04.009Z,45.33
2023-05-11T21:07:31.569Z,45.27
2023-05-11T21:09:59.029Z,45.14
2023-05-11T21:12:26.848Z,44.81
2023-05-11T21:14:56.229Z,44.75
2023-05-11T21:17:24.661Z,45.02
2023-05-11T21:19:52.133Z,44.87
2023-05-11T21:22:19.660Z,44.93
2023-05-11T21:24:46.930Z,44.83
2023-05-11T21:27:15.158Z,44.77
2023-05-11T21:29:42.507Z,45.02
2023-05-11T21:32:10.399Z,45.49
2023-05-11T21:34:38.433Z,45.27
2023-05-11T21:37:06.044Z,44.82
2023-05-11T21:39:33.251Z,44.93
2023-05-11T21:42:01.716Z,44.89
2023-05-11T21:44:29.289Z,45.16
2023-05-11T21:46:57.107Z,45.15
2023-05-11T21:49:24.436Z,45.11
2023-05-11T21:51:52.359Z,45.52
2023-05-11T21:54:22.809Z,45.25
2023-05-11T21:56:52.270Z,45.49
2023-05-11T21:59:20.060Z,45.39
2023-05-11T22:01:49.748Z,45.54
2023-05-11T22:04:17.066Z,45.29
2023-05-11T22:06:44.628Z,45.65
2023-05-11T22:09:12.868Z,45.99
2023-05-11T22:11:40.500Z,46.15
2023-05-11T22:14:07.785Z,45.79
2023-05-11T22:16:35.372Z,45.84
2023-05-11T22:19:02.865Z,45.94
2023-05-11T22:21:30.493Z,45.98
2023-05-11T22:23:57.986Z,46.12
2023-05-11T22:26:26.537Z,46.17
2023-05-11T22:28:53.897Z,46.35
2023-05-11T22:31:21.504Z,46.14
2023-05-11T22:33:48.954Z,46.18
2023-05-11T22:36:16.551Z,46.44
2023-05-11T22:38:43.860Z,46.54
2023-05-11T22:41:11.471Z,46.61
2023-05-11T22:43:39.006Z,46.76
2023-05-11T22:46:07.099Z,46.81
2023-05-11T22:48:34.343Z,46.84
2023-05-11T22:51:06.312Z,46.86
2023-05-11T22:53:33.607Z,46.91
2023-05-11T22:56:06.469Z,47.08
2023-05-11T22:58:34.016Z,47.49
2023-05-11T23:01:01.817Z,47.42
2023-05-11T23:03:29.327Z,47.90
2023-05-11T23:05:56.866Z,48.30
2023-05-11T23:08:26.576Z,48.11
2023-05-11T23:10:54.215Z,47.84
2023-05-11T23:13:21.600Z,47.82
2023-05-11T23:15:49.386Z,48.13
2023-05-11T23:18:16.947Z,48.29
2023-05-11T23:20:44.676Z,48.40
2023-05-11T23:23:12.246Z,48.52
2023-05-11T23:25:39.815Z,48.34
2023-05-11T23:28:11.566Z,48.59
2023-05-11T23:30:40.696Z,48.61
2023-05-11T23:33:08.099Z,48.93
2023-05-11T23:35:35.729Z,49.03
2023-05-11T23:38:02.980Z,49.24
2023-05-11T23:40:31.262Z,49.45
2023-05-11T23:42:58.479Z,49.49
2023-05-11T23:45:28.055Z,49.38
2023-05-11T23:47:55.327Z,49.38
2023-05-11T23:50:23.094Z,49.43
2023-05-11T23:52:50.373Z,49.47
2023-05-11T23:55:18.120Z,49.44
2023-05-11T23:57:45.387Z,49.94
